sensor_id;sensor_type;location;lat;lon;timestamp;pressure;altitude;pressure_sealevel;temperature;humidity
56456;BME280;42354;53.218;6.564;2023-06-19T00:01:52;46958.56;;;-142.92;68.66
56456;BME280;42354;53.218;6.564;2023-06-19T00:04:17;46950.34;;;-142.92;68.62
56456;BME280;42354;53.218;6.564;2023-06-19T00:06:43;46960.59;;;-142.92;68.25
56456;BME280;42354;53.218;6.564;2023-06-19T00:09:08;46942.13;;;-142.92;67.89
56456;BME280;42354;53.218;6.564;2023-06-19T00:11:34;46954.44;;;-142.92;67.64
56456;BME280;42354;53.218;6.564;2023-06-19T00:14:00;46956.50;;;-142.92;67.24
56456;BME280;42354;53.218;6.564;2023-06-19T00:16:27;46946.25;;;-142.92;67.02
56456;BME280;42354;53.218;6.564;2023-06-19T00:18:54;46958.56;;;-142.92;66.84
56456;BME280;42354;53.218;6.564;2023-06-19T00:21:24;46954.44;;;-142.92;66.69
56456;BME280;42354;53.218;6.564;2023-06-19T00:23:52;46952.41;;;-142.92;66.84
56456;BME280;42354;53.218;6.564;2023-06-19T00:26:18;46954.44;;;-142.92;67.02
56456;BME280;42354;53.218;6.564;2023-06-19T00:28:48;46952.41;;;-142.92;66.91
56456;BME280;42354;53.218;6.564;2023-06-19T00:31:15;46954.44;;;-142.92;66.75
56456;BME280;42354;53.218;6.564;2023-06-19T00:33:41;46958.56;;;-142.92;66.42
56456;BME280;42354;53.218;6.564;2023-06-19T00:36:11;46942.13;;;-142.92;66.05
56456;BME280;42354;53.218;6.564;2023-06-19T00:38:39;46948.28;;;-142.92;66.08
56456;BME280;42354;53.218;6.564;2023-06-19T00:41:05;46970.88;;;-142.92;65.78
56456;BME280;42354;53.218;6.564;2023-06-19T00:43:31;46960.59;;;-142.92;65.88
56456;BME280;42354;53.218;6.564;2023-06-19T00:46:01;46962.66;;;-142.92;65.46
56456;BME280;42354;53.218;6.564;2023-06-19T00:48:28;46966.75;;;-142.92;65.47
56456;BME280;42354;53.218;6.564;2023-06-19T00:50:58;46962.66;;;-142.92;64.67
56456;BME280;42354;53.218;6.564;2023-06-19T00:53:24;46954.44;;;-142.92;64.15
56456;BME280;42354;53.218;6.564;2023-06-19T00:55:50;46952.41;;;-142.92;63.38
56456;BME280;42354;53.218;6.564;2023-06-19T00:58:22;46954.44;;;-142.92;62.87
56456;BME280;42354;53.218;6.564;2023-06-19T01:00:48;46950.34;;;-142.92;62.58
56456;BME280;42354;53.218;6.564;2023-06-19T01:03:14;46944.19;;;-142.92;62.40
56456;BME280;42354;53.218;6.564;2023-06-19T01:05:40;46958.56;;;-142.92;62.16
56456;BME280;42354;53.218;6.564;2023-06-19T01:08:56;46956.50;;;-142.92;61.67
56456;BME280;42354;53.218;6.564;2023-06-19T01:10:56;46952.41;;;-142.92;61.34
56456;BME280;42354;53.218;6.564;2023-06-19T01:13:44;46952.41;;;-142.92;60.84
56456;BME280;42354;53.218;6.564;2023-06-19T01:16:11;46935.97;;;-142.92;60.62
56456;BME280;42354;53.218;6.564;2023-06-19T01:18:36;46946.25;;;-142.92;60.53
56456;BME280;42354;53.218;6.564;2023-06-19T01:21:18;46954.44;;;-142.92;59.74
56456;BME280;42354;53.218;6.564;2023-06-19T01:23:45;46946.25;;;-142.92;59.62
56456;BME280;42354;53.218;6.564;2023-06-19T01:26:11;46942.13;;;-142.92;59.10
56456;BME280;42354;53.218;6.564;2023-06-19T01:28:38;46946.25;;;-142.92;58.82
56456;BME280;42354;53.218;6.564;2023-06-19T01:31:29;46962.66;;;-142.92;58.34
56456;BME280;42354;53.218;6.564;2023-06-19T01:33:58;46954.44;;;-142.92;58.41
56456;BME280;42354;53.218;6.564;2023-06-19T01:36:26;46954.44;;;-142.92;58.01
56456;BME280;42354;53.218;6.564;2023-06-19T01:38:54;46954.44;;;-142.92;57.74
56456;BME280;42354;53.218;6.564;2023-06-19T01:41:24;46938.03;;;-142.92;57.41
56456;BME280;42354;53.218;6.564;2023-06-19T01:43:51;46966.75;;;-142.92;57.37
56456;BME280;42354;53.218;6.564;2023-06-19T01:46:17;46964.72;;;-142.92;57.36
56456;BME280;42354;53.218;6.564;2023-06-19T01:48:43;46958.56;;;-142.92;57.45
56456;BME280;42354;53.218;6.564;2023-06-19T01:51:08;46954.44;;;-142.92;57.68
56456;BME280;42354;53.218;6.564;2023-06-19T01:53:34;46948.28;;;-142.92;58.01
56456;BME280;42354;53.218;6.564;2023-06-19T01:56:00;46960.59;;;-142.92;57.94
56456;BME280;42354;53.218;6.564;2023-06-19T01:58:26;46970.88;;;-142.92;58.04
56456;BME280;42354;53.218;6.564;2023-06-19T02:00:51;46948.28;;;-142.92;58.08
56456;BME280;42354;53.218;6.564;2023-06-19T02:03:16;46950.34;;;-142.92;58.06
56456;BME280;42354;53.218;6.564;2023-06-19T02:05:42;46954.44;;;-142.92;57.76
56456;BME280;42354;53.218;6.564;2023-06-19T02:08:07;46948.28;;;-142.92;57.55
56456;BME280;42354;53.218;6.564;2023-06-19T02:10:33;46968.81;;;-142.92;57.25
56456;BME280;42354;53.218;6.564;2023-06-19T02:12:58;46962.66;;;-142.92;57.05
56456;BME280;42354;53.218;6.564;2023-06-19T02:15:24;46970.88;;;-142.92;56.75
56456;BME280;42354;53.218;6.564;2023-06-19T02:17:49;46948.28;;;-142.92;56.69
56456;BME280;42354;53.218;6.564;2023-06-19T02:20:21;46952.41;;;-142.92;56.08
56456;BME280;42354;53.218;6.564;2023-06-19T02:22:46;46970.88;;;-142.92;55.96
56456;BME280;42354;53.218;6.564;2023-06-19T02:25:12;46933.94;;;-142.92;55.45
56456;BME280;42354;53.218;6.564;2023-06-19T02:27:38;46952.41;;;-142.92;55.12
56456;BME280;42354;53.218;6.564;2023-06-19T02:30:04;46958.56;;;-142.92;54.69
56456;BME280;42354;53.218;6.564;2023-06-19T02:32:30;46966.75;;;-142.92;53.94
56456;BME280;42354;53.218;6.564;2023-06-19T02:34:55;46958.56;;;-142.92;53.40
56456;BME280;42354;53.218;6.564;2023-06-19T02:37:21;46948.28;;;-142.92;53.18
56456;BME280;42354;53.218;6.564;2023-06-19T02:39:46;46952.41;;;-142.92;53.28
56456;BME280;42354;53.218;6.564;2023-06-19T02:42:11;46960.59;;;-142.92;52.96
56456;BME280;42354;53.218;6.564;2023-06-19T02:44:37;46950.34;;;-142.92;52.97
56456;BME280;42354;53.218;6.564;2023-06-19T02:47:02;46964.72;;;-142.92;52.50
56456;BME280;42354;53.218;6.564;2023-06-19T02:49:27;46942.13;;;-142.92;51.88
56456;BME280;42354;53.218;6.564;2023-06-19T02:51:53;46944.19;;;-142.92;51.66
56456;BME280;42354;53.218;6.564;2023-06-19T02:54:18;46960.59;;;-142.92;51.20
56456;BME280;42354;53.218;6.564;2023-06-19T02:56:43;46962.66;;;-142.92;51.04
56456;BME280;42354;53.218;6.564;2023-06-19T02:59:09;46958.56;;;-142.92;50.66
56456;BME280;42354;53.218;6.564;2023-06-19T03:01:34;46956.50;;;-142.92;50.11
56456;BME280;42354;53.218;6.564;2023-06-19T03:03:59;46966.75;;;-142.92;50.23
56456;BME280;42354;53.218;6.564;2023-06-19T03:06:26;46946.25;;;-142.92;50.06
56456;BME280;42354;53.218;6.564;2023-06-19T03:08:51;46938.03;;;-142.92;50.15
56456;BME280;42354;53.218;6.564;2023-06-19T03:11:17;46956.50;;;-142.92;50.15
56456;BME280;42354;53.218;6.564;2023-06-19T03:13:53;46958.56;;;-142.92;49.83
56456;BME280;42354;53.218;6.564;2023-06-19T03:16:20;46942.13;;;-142.92;50.01
56456;BME280;42354;53.218;6.564;2023-06-19T03:18:46;46962.66;;;-142.92;49.88
56456;BME280;42354;53.218;6.564;2023-06-19T03:21:14;46946.25;;;-142.92;49.47
56456;BME280;42354;53.218;6.564;2023-06-19T03:23:40;46944.19;;;-142.92;49.36
56456;BME280;42354;53.218;6.564;2023-06-19T03:26:11;46942.13;;;-142.92;49.06
56456;BME280;42354;53.218;6.564;2023-06-19T03:28:37;46956.50;;;-142.92;49.06
56456;BME280;42354;53.218;6.564;2023-06-19T03:31:03;46954.44;;;-142.92;49.35
56456;BME280;42354;53.218;6.564;2023-06-19T03:33:28;46962.66;;;-142.92;49.23
56456;BME280;42354;53.218;6.564;2023-06-19T03:35:53;46956.50;;;-142.92;49.49
56456;BME280;42354;53.218;6.564;2023-06-19T03:38:19;46931.88;;;-142.92;49.66
56456;BME280;42354;53.218;6.564;2023-06-19T03:40:46;46954.44;;;-142.92;49.60
56456;BME280;42354;53.218;6.564;2023-06-19T03:43:11;46948.28;;;-142.92;49.90
56456;BME280;42354;53.218;6.564;2023-06-19T03:45:36;46966.75;;;-142.92;50.14
56456;BME280;42354;53.218;6.564;2023-06-19T03:48:02;46954.44;;;-142.92;50.39
56456;BME280;42354;53.218;6.564;2023-06-19T03:50:27;46966.75;;;-142.92;50.84
56456;BME280;42354;53.218;6.564;2023-06-19T03:52:53;46950.34;;;-142.92;51.06
56456;BME280;42354;53.218;6.564;2023-06-19T03:55:18;46956.50;;;-142.92;51.39
56456;BME280;42354;53.218;6.564;2023-06-19T03:57:44;46935.97;;;-142.92;51.86
56456;BME280;42354;53.218;6.564;2023-06-19T04:00:09;46944.19;;;-142.92;51.93
56456;BME280;42354;53.218;6.564;2023-06-19T04:02:37;46964.72;;;-142.92;52.24
56456;BME280;42354;53.218;6.564;2023-06-19T04:05:02;46942.13;;;-142.92;52.48
56456;BME280;42354;53.218;6.564;2023-06-19T04:07:28;46935.97;;;-142.92;52.81
56456;BME280;42354;53.218;6.564;2023-06-19T04:09:54;46960.59;;;-142.92;53.09
56456;BME280;42354;53.218;6.564;2023-06-19T04:12:19;46956.50;;;-142.92;53.37
56456;BME280;42354;53.218;6.564;2023-06-19T04:14:45;46946.25;;;-142.92;54.04
56456;BME280;42354;53.218;6.564;2023-06-19T04:17:10;46972.91;;;-142.92;54.46
56456;BME280;42354;53.218;6.564;2023-06-19T04:19:35;46960.59;;;-142.92;54.69
56456;BME280;42354;53.218;6.564;2023-06-19T04:22:01;46950.34;;;-142.92;54.93
56456;BME280;42354;53.218;6.564;2023-06-19T04:24:26;46956.50;;;-142.92;55.32
56456;BME280;42354;53.218;6.564;2023-06-19T04:26:51;46958.56;;;-142.92;55.77
56456;BME280;42354;53.218;6.564;2023-06-19T04:29:19;46952.41;;;-142.92;56.44
56456;BME280;42354;53.218;6.564;2023-06-19T04:31:44;46948.28;;;-142.92;56.84
56456;BME280;42354;53.218;6.564;2023-06-19T04:34:13;46946.25;;;-142.92;57.14
56456;BME280;42354;53.218;6.564;2023-06-19T04:36:40;46958.56;;;-142.92;57.45
56456;BME280;42354;53.218;6.564;2023-06-19T04:39:06;46958.56;;;-142.92;57.59
56456;BME280;42354;53.218;6.564;2023-06-19T04:41:32;46946.25;;;-142.92;57.84
56456;BME280;42354;53.218;6.564;2023-06-19T04:43:57;46954.44;;;-142.92;58.58
56456;BME280;42354;53.218;6.564;2023-06-19T04:46:22;46952.41;;;-142.92;59.15
56456;BME280;42354;53.218;6.564;2023-06-19T04:48:48;46952.41;;;-142.92;59.71
56456;BME280;42354;53.218;6.564;2023-06-19T04:51:16;46958.56;;;-142.92;60.00
56456;BME280;42354;53.218;6.564;2023-06-19T04:53:46;46960.59;;;-142.92;60.71
56456;BME280;42354;53.218;6.564;2023-06-19T04:56:11;46954.44;;;-142.92;61.00
56456;BME280;42354;53.218;6.564;2023-06-19T04:58:37;46958.56;;;-142.92;61.49
56456;BME280;42354;53.218;6.564;2023-06-19T05:01:09;46966.75;;;-142.92;61.91
56456;BME280;42354;53.218;6.564;2023-06-19T05:03:35;46948.28;;;-142.92;62.24
56456;BME280;42354;53.218;6.564;2023-06-19T05:06:00;46942.13;;;-142.92;62.62
56456;BME280;42354;53.218;6.564;2023-06-19T05:08:26;46952.41;;;-142.92;63.34
56456;BME280;42354;53.218;6.564;2023-06-19T05:10:51;46952.41;;;-142.92;63.68
56456;BME280;42354;53.218;6.564;2023-06-19T05:13:16;46956.50;;;-142.92;63.78
56456;BME280;42354;53.218;6.564;2023-06-19T05:15:43;46958.56;;;-142.92;63.88
56456;BME280;42354;53.218;6.564;2023-06-19T05:18:08;46958.56;;;-142.92;64.35
56456;BME280;42354;53.218;6.564;2023-06-19T05:20:34;46968.81;;;-142.92;64.38
56456;BME280;42354;53.218;6.564;2023-06-19T05:22:59;46958.56;;;-142.92;64.64
56456;BME280;42354;53.218;6.564;2023-06-19T05:25:24;46954.44;;;-142.92;64.72
56456;BME280;42354;53.218;6.564;2023-06-19T05:27:50;46960.59;;;-142.92;64.79
56456;BME280;42354;53.218;6.564;2023-06-19T05:30:15;46960.59;;;-142.92;64.95
56456;BME280;42354;53.218;6.564;2023-06-19T05:32:41;46946.25;;;-142.92;65.30
56456;BME280;42354;53.218;6.564;2023-06-19T05:35:06;46970.88;;;-142.92;65.22
56456;BME280;42354;53.218;6.564;2023-06-19T05:37:32;46962.66;;;-142.92;65.29
56456;BME280;42354;53.218;6.564;2023-06-19T05:39:58;46964.72;;;-142.92;65.00
56456;BME280;42354;53.218;6.564;2023-06-19T05:42:24;46954.44;;;-142.92;64.31
56456;BME280;42354;53.218;6.564;2023-06-19T05:44:50;46960.59;;;-142.92;64.11
56456;BME280;42354;53.218;6.564;2023-06-19T05:47:15;46952.41;;;-142.92;63.96
56456;BME280;42354;53.218;6.564;2023-06-19T05:49:42;46964.72;;;-142.92;63.68
56456;BME280;42354;53.218;6.564;2023-06-19T05:52:07;46938.03;;;-142.92;63.39
56456;BME280;42354;53.218;6.564;2023-06-19T05:54:33;46954.44;;;-142.92;63.21
56456;BME280;42354;53.218;6.564;2023-06-19T05:56:58;46946.25;;;-142.92;63.26
56456;BME280;42354;53.218;6.564;2023-06-19T05:59:24;46950.34;;;-142.92;63.31
56456;BME280;42354;53.218;6.564;2023-06-19T06:01:50;46948.28;;;-142.92;63.65
56456;BME280;42354;53.218;6.564;2023-06-19T06:04:16;46966.75;;;-142.92;64.11
56456;BME280;42354;53.218;6.564;2023-06-19T06:06:41;46946.25;;;-142.92;64.55
56456;BME280;42354;53.218;6.564;2023-06-19T06:09:08;46950.34;;;-142.92;65.11
56456;BME280;42354;53.218;6.564;2023-06-19T06:11:37;46944.19;;;-142.92;65.58
56456;BME280;42354;53.218;6.564;2023-06-19T06:14:02;46952.41;;;-142.92;66.33
56456;BME280;42354;53.218;6.564;2023-06-19T06:16:28;46962.66;;;-142.92;66.88
56456;BME280;42354;53.218;6.564;2023-06-19T06:18:53;46966.75;;;-142.92;67.19
56456;BME280;42354;53.218;6.564;2023-06-19T06:21:18;46962.66;;;-142.92;67.52
56456;BME280;42354;53.218;6.564;2023-06-19T06:23:44;46954.44;;;-142.92;68.11
56456;BME280;42354;53.218;6.564;2023-06-19T06:26:10;46974.97;;;-142.92;68.68
56456;BME280;42354;53.218;6.564;2023-06-19T06:28:35;46952.41;;;-142.92;68.88
56456;BME280;42354;53.218;6.564;2023-06-19T06:31:00;46950.34;;;-142.92;69.45
56456;BME280;42354;53.218;6.564;2023-06-19T06:33:26;46954.44;;;-142.92;69.59
56456;BME280;42354;53.218;6.564;2023-06-19T06:35:55;46946.25;;;-142.92;69.91
56456;BME280;42354;53.218;6.564;2023-06-19T06:38:20;46952.41;;;-142.92;70.65
56456;BME280;42354;53.218;6.564;2023-06-19T06:40:45;46954.44;;;-142.92;70.89
56456;BME280;42354;53.218;6.564;2023-06-19T06:43:11;46964.72;;;-142.92;71.39
56456;BME280;42354;53.218;6.564;2023-06-19T06:45:36;46952.41;;;-142.92;71.41
56456;BME280;42354;53.218;6.564;2023-06-19T06:48:07;46950.34;;;-142.92;71.43
56456;BME280;42354;53.218;6.564;2023-06-19T06:50:32;46962.66;;;-142.92;71.59
56456;BME280;42354;53.218;6.564;2023-06-19T06:52:57;46952.41;;;-142.92;71.77
56456;BME280;42354;53.218;6.564;2023-06-19T06:55:23;46958.56;;;-142.92;71.85
56456;BME280;42354;53.218;6.564;2023-06-19T06:57:48;46962.66;;;-142.92;72.28
56456;BME280;42354;53.218;6.564;2023-06-19T07:00:14;46950.34;;;-142.92;72.89
56456;BME280;42354;53.218;6.564;2023-06-19T07:02:39;46950.34;;;-142.92;73.24
56456;BME280;42354;53.218;6.564;2023-06-19T07:05:07;46958.56;;;-142.92;74.02
56456;BME280;42354;53.218;6.564;2023-06-19T07:07:32;46944.19;;;-142.92;74.88
56456;BME280;42354;53.218;6.564;2023-06-19T07:09:57;46964.72;;;-142.92;76.17
56456;BME280;42354;53.218;6.564;2023-06-19T07:12:23;46954.44;;;-142.92;76.77
56456;BME280;42354;53.218;6.564;2023-06-19T07:14:48;46956.50;;;-142.92;78.25
56456;BME280;42354;53.218;6.564;2023-06-19T07:17:13;46960.59;;;-142.92;79.04
56456;BME280;42354;53.218;6.564;2023-06-19T07:19:39;46952.41;;;-142.92;79.74
56456;BME280;42354;53.218;6.564;2023-06-19T07:22:05;46954.44;;;-142.92;80.30
56456;BME280;42354;53.218;6.564;2023-06-19T07:24:31;46952.41;;;-142.92;81.16
56456;BME280;42354;53.218;6.564;2023-06-19T07:26:56;46972.91;;;-142.92;82.66
56456;BME280;42354;53.218;6.564;2023-06-19T07:29:22;46954.44;;;-142.92;83.42
56456;BME280;42354;53.218;6.564;2023-06-19T07:31:47;46966.75;;;-142.92;84.32
56456;BME280;42354;53.218;6.564;2023-06-19T07:34:13;46940.09;;;-142.92;85.11
56456;BME280;42354;53.218;6.564;2023-06-19T07:36:39;46960.59;;;-142.92;85.99
56456;BME280;42354;53.218;6.564;2023-06-19T07:39:04;46956.50;;;-142.92;86.71
56456;BME280;42354;53.218;6.564;2023-06-19T07:41:30;46944.19;;;-142.92;87.19
56456;BME280;42354;53.218;6.564;2023-06-19T07:43:55;46950.34;;;-142.92;87.60
56456;BME280;42354;53.218;6.564;2023-06-19T07:46:21;46960.59;;;-142.92;87.54
56456;BME280;42354;53.218;6.564;2023-06-19T07:48:46;46964.72;;;-142.92;87.85
56456;BME280;42354;53.218;6.564;2023-06-19T07:51:11;46956.50;;;-142.92;88.33
56456;BME280;42354;53.218;6.564;2023-06-19T07:53:37;46962.66;;;-142.92;88.56
56456;BME280;42354;53.218;6.564;2023-06-19T07:56:02;46966.75;;;-142.92;88.50
56456;BME280;42354;53.218;6.564;2023-06-19T07:58:28;46950.34;;;-142.92;88.33
56456;BME280;42354;53.218;6.564;2023-06-19T08:00:54;46958.56;;;-142.92;88.21
56456;BME280;42354;53.218;6.564;2023-06-19T08:03:20;46966.75;;;-142.92;88.26
56456;BME280;42354;53.218;6.564;2023-06-19T08:05:47;46968.81;;;-142.92;88.23
56456;BME280;42354;53.218;6.564;2023-06-19T08:08:13;46950.34;;;-142.92;88.31
56456;BME280;42354;53.218;6.564;2023-06-19T08:10:38;46970.88;;;-142.92;87.88
56456;BME280;42354;53.218;6.564;2023-06-19T08:13:04;46954.44;;;-142.92;87.35
56456;BME280;42354;53.218;6.564;2023-06-19T08:15:29;46960.59;;;-142.92;86.98
56456;BME280;42354;53.218;6.564;2023-06-19T08:17:55;46946.25;;;-142.92;86.12
56456;BME280;42354;53.218;6.564;2023-06-19T08:20:20;46966.75;;;-142.92;85.31
56456;BME280;42354;53.218;6.564;2023-06-19T08:22:46;46956.50;;;-142.92;84.40
56456;BME280;42354;53.218;6.564;2023-06-19T08:25:11;46960.59;;;-142.92;83.52
56456;BME280;42354;53.218;6.564;2023-06-19T08:27:37;46970.88;;;-142.92;83.51
56456;BME280;42354;53.218;6.564;2023-06-19T08:30:02;46966.75;;;-142.92;83.67
56456;BME280;42354;53.218;6.564;2023-06-19T08:32:29;46960.59;;;-142.92;83.25
56456;BME280;42354;53.218;6.564;2023-06-19T08:34:54;46970.88;;;-142.92;82.41
56456;BME280;42354;53.218;6.564;2023-06-19T08:37:20;46962.66;;;-142.92;82.45
56456;BME280;42354;53.218;6.564;2023-06-19T08:39:45;46954.44;;;-142.92;81.41
56456;BME280;42354;53.218;6.564;2023-06-19T08:42:10;46962.66;;;-142.92;81.23
56456;BME280;42354;53.218;6.564;2023-06-19T08:44:36;46954.44;;;-142.92;81.36
56456;BME280;42354;53.218;6.564;2023-06-19T08:47:03;46950.34;;;-142.92;81.08
56456;BME280;42354;53.218;6.564;2023-06-19T08:49:35;46962.66;;;-142.92;80.88
56456;BME280;42354;53.218;6.564;2023-06-19T08:52:01;46962.66;;;-142.92;81.10
56456;BME280;42354;53.218;6.564;2023-06-19T08:54:28;46952.41;;;-142.92;80.06
56456;BME280;42354;53.218;6.564;2023-06-19T08:56:54;46962.66;;;-142.92;80.70
56456;BME280;42354;53.218;6.564;2023-06-19T08:59:20;46970.88;;;-142.92;81.40
56456;BME280;42354;53.218;6.564;2023-06-19T09:01:53;46952.41;;;-142.92;82.27
56456;BME280;42354;53.218;6.564;2023-06-19T09:04:22;46962.66;;;-142.92;82.14
56456;BME280;42354;53.218;6.564;2023-06-19T09:06:52;46950.34;;;-142.92;81.66
56456;BME280;42354;53.218;6.564;2023-06-19T09:09:22;46962.66;;;-142.92;80.48
56456;BME280;42354;53.218;6.564;2023-06-19T09:12:05;46977.03;;;-142.92;79.32
56456;BME280;42354;53.218;6.564;2023-06-19T09:14:34;46962.66;;;-142.92;78.15
56456;BME280;42354;53.218;6.564;2023-06-19T09:17:02;46974.97;;;-142.92;76.71
56456;BME280;42354;53.218;6.564;2023-06-19T09:19:27;46962.66;;;-142.92;75.42
56456;BME280;42354;53.218;6.564;2023-06-19T09:21:52;46946.25;;;-142.92;73.64
56456;BME280;42354;53.218;6.564;2023-06-19T09:24:18;46962.66;;;-142.92;72.47
56456;BME280;42354;53.218;6.564;2023-06-19T09:26:43;46964.72;;;-142.92;71.36
56456;BME280;42354;53.218;6.564;2023-06-19T09:29:15;46964.72;;;-142.92;70.36
56456;BME280;42354;53.218;6.564;2023-06-19T09:31:44;46956.50;;;-142.92;68.27
56456;BME280;42354;53.218;6.564;2023-06-19T09:34:09;46966.75;;;-142.92;67.65
56456;BME280;42354;53.218;6.564;2023-06-19T09:36:35;46954.44;;;-142.92;66.67
56456;BME280;42354;53.218;6.564;2023-06-19T09:39:04;46958.56;;;-142.92;67.25
56456;BME280;42354;53.218;6.564;2023-06-19T09:41:31;46952.41;;;-142.92;66.54
56456;BME280;42354;53.218;6.564;2023-06-19T09:43:58;46956.50;;;-142.92;66.25
56456;BME280;42354;53.218;6.564;2023-06-19T09:46:32;46981.13;;;-142.92;67.21
56456;BME280;42354;53.218;6.564;2023-06-19T09:49:04;46950.34;;;-142.92;68.39
56456;BME280;42354;53.218;6.564;2023-06-19T09:51:33;46954.44;;;-142.92;68.75
56456;BME280;42354;53.218;6.564;2023-06-19T09:54:04;46950.34;;;-142.92;68.60
56456;BME280;42354;53.218;6.564;2023-06-19T09:56:32;46962.66;;;-142.92;68.67
56456;BME280;42354;53.218;6.564;2023-06-19T09:58:59;46952.41;;;-142.92;68.32
56456;BME280;42354;53.218;6.564;2023-06-19T10:01:27;46956.50;;;-142.92;67.45
56456;BME280;42354;53.218;6.564;2023-06-19T10:04:04;46958.56;;;-142.92;66.77
56456;BME280;42354;53.218;6.564;2023-06-19T10:06:31;46962.66;;;-142.92;66.21
56456;BME280;42354;53.218;6.564;2023-06-19T10:09:06;46960.59;;;-142.92;65.70
56456;BME280;42354;53.218;6.564;2023-06-19T10:11:50;46958.56;;;-142.92;65.37
56456;BME280;42354;53.218;6.564;2023-06-19T10:14:20;46972.91;;;-142.92;65.79
56456;BME280;42354;53.218;6.564;2023-06-19T10:16:46;46942.13;;;-142.92;65.90
56456;BME280;42354;53.218;6.564;2023-06-19T10:19:14;46970.88;;;-142.92;65.40
56456;BME280;42354;53.218;6.564;2023-06-19T10:21:52;46956.50;;;-142.92;65.67
56456;BME280;42354;53.218;6.564;2023-06-19T10:24:18;46956.50;;;-142.92;66.13
56456;BME280;42354;53.218;6.564;2023-06-19T10:27:01;46956.50;;;-142.92;66.33
56456;BME280;42354;53.218;6.564;2023-06-19T10:29:40;46958.56;;;-142.92;66.75
56456;BME280;42354;53.218;6.564;2023-06-19T10:32:07;46972.91;;;-142.92;67.30
56456;BME280;42354;53.218;6.564;2023-06-19T10:34:33;46958.56;;;-142.92;67.82
56456;BME280;42354;53.218;6.564;2023-06-19T10:36:59;46974.97;;;-142.92;68.17
56456;BME280;42354;53.218;6.564;2023-06-19T10:39:24;46960.59;;;-142.92;68.05
56456;BME280;42354;53.218;6.564;2023-06-19T10:41:51;46962.66;;;-142.92;67.75
56456;BME280;42354;53.218;6.564;2023-06-19T10:44:16;46968.81;;;-142.92;67.35
56456;BME280;42354;53.218;6.564;2023-06-19T10:46:42;46956.50;;;-142.92;66.41
56456;BME280;42354;53.218;6.564;2023-06-19T10:49:08;46954.44;;;-142.92;64.76
56456;BME280;42354;53.218;6.564;2023-06-19T10:51:36;46950.34;;;-142.92;64.79
56456;BME280;42354;53.218;6.564;2023-06-19T10:54:02;46948.28;;;-142.92;63.55
56456;BME280;42354;53.218;6.564;2023-06-19T10:56:27;46966.75;;;-142.92;62.53
56456;BME280;42354;53.218;6.564;2023-06-19T10:59:11;46946.25;;;-142.92;61.90
56456;BME280;42354;53.218;6.564;2023-06-19T11:01:39;46966.75;;;-142.92;61.36
56456;BME280;42354;53.218;6.564;2023-06-19T11:04:09;46970.88;;;-142.92;59.78
56456;BME280;42354;53.218;6.564;2023-06-19T11:06:37;46956.50;;;-142.92;59.65
56456;BME280;42354;53.218;6.564;2023-06-19T11:09:04;46954.44;;;-142.92;61.34
56456;BME280;42354;53.218;6.564;2023-06-19T11:11:47;46950.34;;;-142.92;62.30
56456;BME280;42354;53.218;6.564;2023-06-19T11:14:14;46954.44;;;-142.92;61.59
56456;BME280;42354;53.218;6.564;2023-06-19T11:16:45;46966.75;;;-142.92;61.41
56456;BME280;42354;53.218;6.564;2023-06-19T11:19:19;46968.81;;;-142.92;60.04
56456;BME280;42354;53.218;6.564;2023-06-19T11:21:47;46938.03;;;-142.92;58.36
56456;BME280;42354;53.218;6.564;2023-06-19T11:24:15;46956.50;;;-142.92;57.28
56456;BME280;42354;53.218;6.564;2023-06-19T11:26:50;46952.41;;;-142.92;55.67
56456;BME280;42354;53.218;6.564;2023-06-19T11:29:17;46972.91;;;-142.92;54.81
56456;BME280;42354;53.218;6.564;2023-06-19T11:31:43;46966.75;;;-142.92;53.27
56456;BME280;42354;53.218;6.564;2023-06-19T11:34:09;46952.41;;;-142.92;52.07
56456;BME280;42354;53.218;6.564;2023-06-19T11:36:39;46956.50;;;-142.92;53.01
56456;BME280;42354;53.218;6.564;2023-06-19T11:39:09;46962.66;;;-142.92;51.36
56456;BME280;42354;53.218;6.564;2023-06-19T11:41:35;46946.25;;;-142.92;51.73
56456;BME280;42354;53.218;6.564;2023-06-19T11:44:03;46964.72;;;-142.92;51.12
56456;BME280;42354;53.218;6.564;2023-06-19T11:46:30;46962.66;;;-142.92;51.87
56456;BME280;42354;53.218;6.564;2023-06-19T11:49:13;46960.59;;;-142.92;51.64
56456;BME280;42354;53.218;6.564;2023-06-19T11:51:39;46962.66;;;-142.92;51.52
56456;BME280;42354;53.218;6.564;2023-06-19T11:54:06;46966.75;;;-142.92;51.63
56456;BME280;42354;53.218;6.564;2023-06-19T11:56:33;46958.56;;;-142.92;50.33
56456;BME280;42354;53.218;6.564;2023-06-19T11:58:59;46952.41;;;-142.92;51.21
56456;BME280;42354;53.218;6.564;2023-06-19T12:01:24;46950.34;;;-142.92;51.49
56456;BME280;42354;53.218;6.564;2023-06-19T12:03:51;46954.44;;;-142.92;50.22
56456;BME280;42354;53.218;6.564;2023-06-19T12:06:17;46950.34;;;-142.92;48.50
56456;BME280;42354;53.218;6.564;2023-06-19T12:08:43;46964.72;;;-142.92;47.26
56456;BME280;42354;53.218;6.564;2023-06-19T12:11:08;46956.50;;;-142.92;47.17
56456;BME280;42354;53.218;6.564;2023-06-19T12:13:35;46952.41;;;-142.92;46.39
56456;BME280;42354;53.218;6.564;2023-06-19T12:16:01;46946.25;;;-142.92;46.58
56456;BME280;42354;53.218;6.564;2023-06-19T12:18:26;46952.41;;;-142.92;46.39
56456;BME280;42354;53.218;6.564;2023-06-19T12:20:52;46956.50;;;-142.92;44.84
56456;BME280;42354;53.218;6.564;2023-06-19T12:23:17;46958.56;;;-142.92;45.16
56456;BME280;42354;53.218;6.564;2023-06-19T12:25:43;46956.50;;;-142.92;46.78
56456;BME280;42354;53.218;6.564;2023-06-19T12:28:08;46956.50;;;-142.92;46.92
56456;BME280;42354;53.218;6.564;2023-06-19T12:30:35;46954.44;;;-142.92;46.48
56456;BME280;42354;53.218;6.564;2023-06-19T12:33:00;46950.34;;;-142.92;46.81
56456;BME280;42354;53.218;6.564;2023-06-19T12:35:28;46956.50;;;-142.92;47.82
56456;BME280;42354;53.218;6.564;2023-06-19T12:37:53;46952.41;;;-142.92;47.67
56456;BME280;42354;53.218;6.564;2023-06-19T12:40:20;46968.81;;;-142.92;47.41